Strona główna
METAR-TAF:

METAR-TAF

Lotnisko :

Port lotniczy Palma de Mallorca

Palma de Mallorca, Hiszpania

Szerokość geograficzna: 39-33N, Długość geograficzna: 002-44E, wysokość: 4 m

Aktualna obserwacja pogody

Raport powstał 26 minut temu, godzina 22:30 UTC
Wiatr 4 kt od wschód
Temperatura 8°C
Wilgotność 93%
Ciśnienie 1023 hPa
Widzialność 10 km lub więcej
Mało chmury na wysokości 3200 ft
Przerywane chmury na wysokości 3800 ft

METAR: LEPA 192230Z 08004KT 9999 FEW032 BKN038 08/07 Q1023 NOSIG

czas: 23:56 (22:56 UTC)

Prognoza

Raport powstał 5 godziny i 56 minut temu, godzina 17:00 UTC
Prognoza ważna od 19 godzina 18 UTC do 20 godzina 18 UTC
Wiatr 4 kt z kierunków zmiennych
Widzialność 10 km lub więcej
Mało chmury na wysokości 3000 ft
Stopniowe zmiany
od 19 godzina 18 UTC do 19 godzina 20 UTC
Wiatr 6 kt od wschodnio-północny wschód
Stopniowe zmiany
od 20 godzina 12 UTC do 20 godzina 14 UTC
Wiatr 10 kt od południowy zachód

TAF: LEPA 191700Z 1918/2018 VRB04KT 9999 FEW030 TX18/2012Z TN01/2006Z BECMG 1918/1920 06006KT BECMG 2012/2014 22010KT

Obserwacja i prognoza pogody dla ponad 4000 lotnisk (raport METAR i TAF).

Dostępne stacje oznaczono żółtymi i czerwonymi punktami na mapie.

Najedź kursorem aby zobaczyć nazwę stacji.

Kliknij aby zobaczyć obserwacje i prognozy pogody.

Aby zmienić mapę: kliknij na zielony przycisk z czarnym krzyżykiem, aby powiększyć; na zielony przycisk z myślnikiem, aby pomniejszyć; na zielone strzałki, aby przejść do map sąsiednich.


METAR-TAF: